Time;durP1;ratioP1;P1;durP2;ratioP2;P2;SDS_P1;SDS_P2;PMS_P1;PMS_P2;Temp;Humidity;BMP_temperature;BMP_pressure;BME280_temperature;BME280_humidity;BME280_pressure;Samples;Min_cycle;Max_cycle;Signal;HPM_P1;HPM_P2
2022/09/08 00:02:25;;;;;;;4.25;1.77;;;21.60;99.90;;;;;;5053352;28;20303;-62
2022/09/08 00:04:52;;;;;;;4.85;1.80;;;21.50;99.90;;;;;;5052968;28;20241;-63
2022/09/08 00:07:19;;;;;;;4.18;2.00;;;21.60;99.90;;;;;;5053156;28;20236;-63
2022/09/08 00:09:47;;;;;;;5.07;1.67;;;21.50;99.90;;;;;;5053077;28;20297;-63
2022/09/08 00:12:15;;;;;;;7.15;1.77;;;21.40;99.90;;;;;;5053126;28;20578;-63
2022/09/08 00:14:42;;;;;;;2.53;1.67;;;21.30;99.90;;;;;;5052233;28;20315;-63
2022/09/08 00:17:09;;;;;;;7.70;1.95;;;21.20;99.90;;;;;;5053082;28;20202;-62
2022/09/08 00:19:35;;;;;;;2.92;1.60;;;21.20;99.90;;;;;;5052919;28;20213;-62
2022/09/08 00:22:02;;;;;;;2.55;1.40;;;21.20;99.90;;;;;;5052822;28;20237;-63
2022/09/08 00:24:28;;;;;;;3.13;1.75;;;21.20;99.90;;;;;;5052502;28;20267;-62
2022/09/08 00:26:56;;;;;;;4.00;1.60;;;21.10;99.90;;;;;;5052568;28;20221;-63
2022/09/08 00:29:23;;;;;;;2.63;1.60;;;21.10;99.90;;;;;;5052592;28;20209;-63
2022/09/08 00:31:50;;;;;;;7.90;1.90;;;21.00;99.90;;;;;;5052762;28;20221;-63
2022/09/08 00:34:16;;;;;;;3.00;1.60;;;21.00;99.90;;;;;;5052430;28;20202;-62
2022/09/08 00:36:43;;;;;;;1.85;1.55;;;21.00;99.90;;;;;;5052605;28;20665;-63
2022/09/08 00:39:10;;;;;;;4.25;1.88;;;21.00;99.90;;;;;;5052509;28;20205;-64
2022/09/08 00:41:36;;;;;;;4.18;1.80;;;21.00;99.90;;;;;;5052266;28;20229;-63
2022/09/08 00:44:38;;;;;;;4.03;1.95;;;21.10;99.90;;;;;;5051977;28;20692;-63
2022/09/08 00:47:12;;;;;;;4.55;1.95;;;21.10;99.90;;;;;;5052406;28;20324;-62
2022/09/08 00:49:39;;;;;;;2.75;1.73;;;21.20;99.90;;;;;;5052347;28;20217;-63
2022/09/08 00:52:05;;;;;;;4.13;2.10;;;21.10;99.90;;;;;;5052054;28;20283;-63
2022/09/08 00:54:32;;;;;;;3.78;1.95;;;21.10;99.90;;;;;;5052205;28;20213;-63
2022/09/08 00:56:59;;;;;;;2.80;2.00;;;21.10;99.90;;;;;;5052389;28;20209;-63
2022/09/08 00:59:26;;;;;;;3.10;1.77;;;21.00;99.90;;;;;;5052528;28;20248;-63
2022/09/08 01:01:55;;;;;;;5.03;1.90;;;20.90;99.90;;;;;;5052101;28;20229;-62
2022/09/08 01:04:22;;;;;;;4.60;2.25;;;20.90;99.90;;;;;;5051863;28;20570;-63
2022/09/08 01:12:45;;;;;;;5.65;2.00;;;21.20;99.90;;;;;;5051906;28;20216;-62
2022/09/08 01:15:15;;;;;;;4.85;1.92;;;21.20;99.90;;;;;;5051583;28;20210;-63
2022/09/08 01:17:43;;;;;;;2.88;2.20;;;21.20;99.90;;;;;;5051895;28;20206;-63
2022/09/08 01:20:11;;;;;;;5.57;2.17;;;21.30;99.90;;;;;;5051696;28;20243;-63
2022/09/08 01:23:01;;;;;;;4.80;2.47;;;21.40;99.90;;;;;;5052004;28;20286;-62
2022/09/08 01:25:53;;;;;;;4.53;2.17;;;21.40;99.90;;;;;;5050523;28;20738;-62
2022/09/08 01:28:26;;;;;;;3.00;1.98;;;21.40;99.90;;;;;;5051788;28;20593;-62
2022/09/08 01:30:54;;;;;;;4.97;2.67;;;21.40;99.90;;;;;;5051696;28;20229;-63
2022/09/08 01:33:22;;;;;;;3.35;2.40;;;21.40;99.90;;;;;;5051809;28;20622;-63
2022/09/08 01:35:49;;;;;;;3.20;1.95;;;21.40;99.90;;;;;;5051457;28;20715;-63
2022/09/08 01:38:16;;;;;;;2.55;2.00;;;21.40;99.90;;;;;;5051689;28;20351;-63
2022/09/08 01:40:43;;;;;;;6.40;2.35;;;21.30;99.90;;;;;;5051562;28;20221;-63
2022/09/08 01:43:10;;;;;;;3.15;2.00;;;21.30;99.90;;;;;;5051628;28;20217;-63
2022/09/08 01:45:40;;;;;;;3.47;2.50;;;21.20;99.90;;;;;;5051142;28;20221;-63
2022/09/08 01:48:08;;;;;;;3.85;2.15;;;21.20;99.90;;;;;;5051665;28;20213;-63
2022/09/08 01:50:36;;;;;;;3.58;2.15;;;21.20;99.90;;;;;;5051258;28;20229;-62
2022/09/08 01:53:02;;;;;;;5.20;2.30;;;21.20;99.90;;;;;;5051764;28;20267;-63
2022/09/08 01:55:29;;;;;;;3.67;2.40;;;21.10;99.90;;;;;;5051380;28;20213;-63
2022/09/08 01:57:56;;;;;;;4.20;2.20;;;21.00;99.90;;;;;;5051448;28;20304;-63
2022/09/08 02:00:23;;;;;;;4.03;2.17;;;21.00;99.90;;;;;;5051276;28;20229;-63
2022/09/08 02:02:51;;;;;;;3.78;2.30;;;21.00;99.90;;;;;;5051176;28;20675;-63
2022/09/08 02:05:18;;;;;;;4.63;2.25;;;20.90;99.90;;;;;;5051317;28;20267;-63
2022/09/08 02:07:44;;;;;;;3.15;2.00;;;20.90;99.90;;;;;;5051205;28;20234;-63
2022/09/08 02:10:11;;;;;;;2.58;1.95;;;20.90;99.90;;;;;;5051369;28;20217;-62
2022/09/08 02:12:38;;;;;;;2.83;2.17;;;20.80;99.90;;;;;;5051154;28;20557;-63
2022/09/08 02:15:06;;;;;;;3.58;2.40;;;20.80;99.90;;;;;;5051016;28;20604;-63
2022/09/08 02:17:33;;;;;;;3.67;2.20;;;20.80;99.90;;;;;;5051130;28;20201;-63
2022/09/08 02:20:01;;;;;;;3.78;2.28;;;20.70;99.90;;;;;;5051089;28;20688;-62
2022/09/08 02:22:28;;;;;;;6.80;2.22;;;20.70;99.90;;;;;;5050979;28;20214;-63
2022/09/08 02:24:55;;;;;;;3.00;2.30;;;20.70;99.90;;;;;;5051006;28;20210;-63
2022/09/08 02:27:21;;;;;;;3.95;2.22;;;20.70;99.90;;;;;;5051092;28;20226;-62
2022/09/08 02:29:49;;;;;;;3.55;2.50;;;20.70;99.90;;;;;;5051035;28;20209;-63
2022/09/08 02:32:15;;;;;;;2.85;2.22;;;20.60;99.90;;;;;;5051414;28;20225;-62
2022/09/08 02:34:42;;;;;;;5.93;2.30;;;20.60;99.90;;;;;;5051171;28;20275;-63
2022/09/08 02:37:10;;;;;;;3.40;2.40;;;20.60;99.90;;;;;;5052628;28;20205;-62
2022/09/08 02:39:37;;;;;;;4.90;2.67;;;20.60;99.90;;;;;;5054971;28;20209;-63
2022/09/08 02:42:04;;;;;;;4.13;2.20;;;20.60;99.90;;;;;;5054718;28;20237;-63
2022/09/08 02:44:30;;;;;;;6.40;2.40;;;20.60;99.90;;;;;;5054340;28;20206;-62
2022/09/08 02:46:57;;;;;;;6.88;2.40;;;20.50;99.90;;;;;;5054655;28;20233;-63
2022/09/08 02:49:24;;;;;;;2.83;2.20;;;20.50;99.90;;;;;;5054675;28;20486;-63
2022/09/08 02:51:50;;;;;;;5.60;2.00;;;20.50;99.90;;;;;;5054493;28;20244;-62
2022/09/08 02:54:19;;;;;;;4.80;2.15;;;20.60;99.90;;;;;;5054261;28;20213;-63
2022/09/08 02:56:45;;;;;;;3.30;1.98;;;20.50;99.90;;;;;;5054357;28;20693;-63
2022/09/08 02:59:12;;;;;;;3.95;1.80;;;20.50;99.90;;;;;;5054233;28;20236;-61
2022/09/08 03:01:39;;;;;;;2.85;1.73;;;20.50;99.90;;;;;;5054477;28;20226;-63
2022/09/08 03:04:06;;;;;;;4.47;1.88;;;20.40;99.90;;;;;;5054224;28;20205;-65
2022/09/08 03:06:33;;;;;;;5.03;2.33;;;20.40;99.90;;;;;;5054213;28;20312;-62
2022/09/08 03:09:00;;;;;;;26.20;23.35;;;20.40;99.90;;;;;;5054209;28;20260;-63
2022/09/08 03:11:31;;;;;;;3.30;2.95;;;20.50;99.90;;;;;;5054029;28;20701;-63
2022/09/08 03:13:58;;;;;;;2.75;1.80;;;20.40;99.90;;;;;;5053772;28;20209;-62
2022/09/08 03:16:25;;;;;;;3.45;1.60;;;20.50;99.90;;;;;;5054070;28;20263;-63
2022/09/08 03:18:52;;;;;;;2.97;1.90;;;20.40;99.90;;;;;;5054124;28;20205;-63
2022/09/08 03:21:18;;;;;;;4.90;2.17;;;20.40;99.90;;;;;;5053813;28;20299;-63
2022/09/08 03:23:45;;;;;;;3.25;1.90;;;20.50;99.90;;;;;;5053690;28;20210;-63
2022/09/08 03:26:13;;;;;;;2.25;1.90;;;20.50;99.90;;;;;;5053458;28;20693;-63
2022/09/08 03:28:42;;;;;;;3.38;1.70;;;20.60;99.90;;;;;;5053814;28;20689;-62
2022/09/08 03:31:10;;;;;;;3.40;2.15;;;20.60;99.90;;;;;;5053816;28;20230;-62
2022/09/08 03:33:36;;;;;;;3.20;1.85;;;20.60;99.90;;;;;;5053464;28;20669;-63
2022/09/08 03:36:05;;;;;;;3.50;1.90;;;20.60;99.90;;;;;;5053798;28;20271;-63
2022/09/08 03:38:32;;;;;;;2.97;2.10;;;20.50;99.90;;;;;;5053568;28;20213;-63
2022/09/08 03:40:59;;;;;;;1.67;1.58;;;20.50;99.90;;;;;;5053380;28;20340;-63
2022/09/08 03:43:26;;;;;;;1.60;1.50;;;20.50;99.90;;;;;;5053781;28;20284;-63
2022/09/08 03:45:54;;;;;;;4.65;1.48;;;20.40;99.90;;;;;;5053314;28;20213;-63
2022/09/08 03:48:21;;;;;;;1.67;1.30;;;20.40;99.90;;;;;;5052860;28;20198;-63
2022/09/08 03:50:47;;;;;;;2.38;1.10;;;20.40;99.90;;;;;;5053403;28;20248;-62
2022/09/08 03:53:14;;;;;;;1.75;1.20;;;20.40;99.90;;;;;;5053376;28;20716;-62
2022/09/08 03:55:41;;;;;;;2.83;1.55;;;20.40;99.90;;;;;;5053386;28;20292;-63
2022/09/08 03:58:08;;;;;;;4.13;1.65;;;20.40;99.90;;;;;;5053540;28;20332;-63
2022/09/08 04:00:35;;;;;;;2.95;1.70;;;20.50;99.90;;;;;;5053557;28;20317;-63
2022/09/08 04:03:04;;;;;;;3.53;2.55;;;20.40;99.90;;;;;;5053527;28;20209;-62
2022/09/08 04:05:31;;;;;;;1.17;0.90;;;20.40;99.90;;;;;;5052910;28;20304;-63
2022/09/08 04:07:58;;;;;;;1.75;1.20;;;20.30;99.90;;;;;;5052899;28;20229;-63
2022/09/08 04:10:24;;;;;;;0.98;0.90;;;20.40;99.90;;;;;;5053178;28;20226;-62
2022/09/08 04:12:51;;;;;;;2.28;1.25;;;20.40;99.90;;;;;;5053060;28;20201;-63
2022/09/08 04:15:18;;;;;;;1.55;1.15;;;20.30;99.90;;;;;;5052877;28;20206;-63
2022/09/08 04:17:44;;;;;;;1.70;1.10;;;20.40;99.90;;;;;;5052971;28;20234;-63
2022/09/08 04:20:16;;;;;;;3.13;1.05;;;20.40;99.90;;;;;;5052713;28;20205;-62
2022/09/08 04:22:42;;;;;;;1.63;0.90;;;20.30;99.90;;;;;;5068279;22;20552;-55
2022/09/08 04:25:09;;;;;;;1.23;0.90;;;20.20;99.90;;;;;;5048604;28;20202;-53
2022/09/08 04:27:36;;;;;;;2.78;0.90;;;20.20;99.90;;;;;;5052662;28;20240;-55
2022/09/08 04:30:03;;;;;;;2.10;1.00;;;20.20;99.90;;;;;;5052841;28;20206;-54
2022/09/08 04:32:30;;;;;;;1.15;0.88;;;20.20;99.90;;;;;;5053375;28;20237;-54
2022/09/08 04:34:56;;;;;;;0.95;0.68;;;20.10;99.90;;;;;;5052440;28;20213;-57
2022/09/08 04:37:24;;;;;;;1.67;0.80;;;20.10;99.90;;;;;;5053152;28;20205;-54
2022/09/08 04:39:51;;;;;;;1.15;0.85;;;20.10;99.90;;;;;;5052769;28;20284;-54
2022/09/08 04:42:18;;;;;;;1.08;0.70;;;20.00;99.90;;;;;;5052712;28;20230;-55
2022/09/08 04:44:44;;;;;;;1.33;1.00;;;20.10;99.90;;;;;;5052631;28;20472;-55
2022/09/08 04:47:12;;;;;;;1.98;1.10;;;20.00;99.90;;;;;;5052337;28;20233;-55
2022/09/08 04:49:38;;;;;;;4.38;1.23;;;20.00;99.90;;;;;;5052841;28;20259;-54
2022/09/08 04:52:05;;;;;;;2.60;0.90;;;20.00;99.90;;;;;;5052219;28;20234;-56
2022/09/08 04:54:33;;;;;;;1.85;0.90;;;19.90;99.90;;;;;;5051963;28;20696;-55
2022/09/08 04:57:00;;;;;;;2.35;0.90;;;20.00;99.90;;;;;;5052300;28;20228;-55
2022/09/08 04:59:28;;;;;;;1.65;0.82;;;20.00;99.90;;;;;;5052248;28;20213;-54
2022/09/08 05:01:54;;;;;;;2.25;1.10;;;20.00;99.90;;;;;;5052144;28;20258;-54
2022/09/08 05:04:21;;;;;;;2.75;1.17;;;20.00;99.90;;;;;;5051815;28;20279;-56
2022/09/08 05:06:48;;;;;;;3.10;1.02;;;20.00;99.90;;;;;;5052149;28;20839;-55
2022/09/08 05:09:15;;;;;;;2.75;0.95;;;19.90;99.90;;;;;;5052231;28;20208;-54
2022/09/08 05:11:43;;;;;;;1.13;0.80;;;19.90;99.90;;;;;;5051966;28;20646;-56
2022/09/08 05:14:10;;;;;;;1.77;1.13;;;19.90;99.90;;;;;;5051940;28;20227;-56
2022/09/08 05:16:36;;;;;;;3.83;0.90;;;19.90;99.90;;;;;;5051892;28;20591;-54
2022/09/08 05:19:06;;;;;;;1.67;0.85;;;19.90;99.90;;;;;;5052140;28;20825;-54
2022/09/08 05:21:34;;;;;;;1.88;0.95;;;19.90;99.90;;;;;;5051826;28;20237;-54
2022/09/08 05:24:02;;;;;;;3.58;1.00;;;19.90;99.90;;;;;;5051782;28;20205;-54
2022/09/08 05:26:30;;;;;;;2.28;1.42;;;19.90;99.90;;;;;;5051978;28;20217;-54
2022/09/08 05:28:58;;;;;;;1.35;0.90;;;19.80;99.90;;;;;;5052288;28;20672;-54
2022/09/08 05:31:27;;;;;;;3.38;0.98;;;19.80;99.90;;;;;;5051966;28;20252;-54
2022/09/08 05:33:56;;;;;;;1.25;0.80;;;19.80;99.90;;;;;;5051777;28;20216;-55
2022/09/08 05:36:24;;;;;;;0.73;0.70;;;19.80;99.90;;;;;;5051845;28;20209;-55
2022/09/08 05:38:52;;;;;;;1.25;0.85;;;19.80;99.90;;;;;;5051472;28;20209;-54
2022/09/08 05:41:18;;;;;;;1.48;0.90;;;19.80;99.90;;;;;;5051484;28;20260;-55
2022/09/08 05:43:45;;;;;;;2.28;0.90;;;19.80;99.90;;;;;;5051311;28;20201;-53
2022/09/08 05:46:13;;;;;;;2.28;1.00;;;19.90;99.90;;;;;;5051376;28;20259;-55
2022/09/08 05:48:40;;;;;;;3.05;1.10;;;19.90;99.90;;;;;;5051409;28;20256;-54
2022/09/08 05:51:09;;;;;;;1.10;0.90;;;19.90;99.90;;;;;;5051369;28;20233;-56
2022/09/08 05:53:36;;;;;;;2.08;1.08;;;19.80;99.90;;;;;;5051489;28;20312;-55
2022/09/08 05:56:07;;;;;;;1.10;0.90;;;19.90;99.90;;;;;;5051071;28;20260;-55
2022/09/08 05:58:34;;;;;;;1.63;0.90;;;19.90;99.90;;;;;;5051860;28;20288;-55
2022/09/08 06:01:03;;;;;;;1.05;0.60;;;19.90;99.90;;;;;;5051562;28;20225;-57
2022/09/08 06:03:31;;;;;;;1.13;1.02;;;19.80;99.90;;;;;;5051525;28;20263;-55
2022/09/08 06:06:04;;;;;;;1.10;1.00;;;19.80;99.90;;;;;;5051391;28;20213;-56
2022/09/08 06:08:30;;;;;;;2.10;0.85;;;19.80;99.90;;;;;;5051583;28;20221;-55
2022/09/08 06:10:57;;;;;;;1.63;0.85;;;19.90;99.90;;;;;;5051127;28;20229;-56
2022/09/08 06:13:24;;;;;;;1.13;0.95;;;19.90;99.90;;;;;;5055519;28;20312;-56
2022/09/08 06:15:51;;;;;;;2.33;1.10;;;20.00;99.90;;;;;;5055164;28;20277;-57
2022/09/08 06:18:19;;;;;;;2.17;1.08;;;20.00;99.90;;;;;;5055481;28;20202;-55
2022/09/08 06:20:48;;;;;;;3.47;1.02;;;20.00;99.90;;;;;;5055441;28;20209;-55
2022/09/08 06:23:14;;;;;;;1.92;1.20;;;20.00;99.90;;;;;;5055285;28;20213;-55
2022/09/08 06:25:42;;;;;;;3.70;0.95;;;20.10;99.90;;;;;;5055204;28;20210;-57
2022/09/08 06:28:30;;;;;;;2.42;0.98;;;20.00;99.90;;;;;;5055235;28;20293;-57
2022/09/08 06:30:57;;;;;;;3.10;1.45;;;20.10;99.90;;;;;;5055323;28;20233;-56
2022/09/08 06:33:30;;;;;;;1.58;1.10;;;20.10;99.90;;;;;;5055306;28;20237;-55
2022/09/08 06:36:09;;;;;;;2.13;0.88;;;20.20;99.90;;;;;;5054552;28;20917;-56
2022/09/08 06:38:40;;;;;;;2.70;1.10;;;20.20;99.90;;;;;;5055122;28;20214;-55
2022/09/08 06:41:13;;;;;;;3.08;1.50;;;20.20;99.90;;;;;;5055012;28;20236;-55
2022/09/08 06:43:42;;;;;;;2.65;1.30;;;20.20;99.90;;;;;;5055242;28;20286;-55
2022/09/08 06:46:18;;;;;;;3.08;1.33;;;20.30;99.90;;;;;;5054288;28;20208;-55
2022/09/08 06:48:44;;;;;;;2.10;1.10;;;20.20;99.90;;;;;;5054851;28;20312;-55
2022/09/08 06:51:37;;;;;;;2.20;1.20;;;20.30;99.90;;;;;;5054659;28;20225;-55
2022/09/08 06:54:37;;;;;;;1.38;0.82;;;20.20;99.90;;;;;;5050396;28;20608;-56
2022/09/08 06:57:19;;;;;;;1.83;1.20;;;20.30;99.90;;;;;;5054437;28;20264;-56
2022/09/08 06:59:54;;;;;;;2.80;1.00;;;20.30;99.90;;;;;;5054596;28;20209;-56
2022/09/08 07:02:39;;;;;;;1.95;0.90;;;20.30;99.90;;;;;;5054269;28;20283;-56
2022/09/08 07:05:20;;;;;;;2.65;1.20;;;20.30;99.90;;;;;;5054047;28;20614;-55
2022/09/08 07:07:54;;;;;;;3.53;0.90;;;20.30;99.90;;;;;;5054482;28;20233;-56
2022/09/08 07:10:27;;;;;;;3.50;0.98;;;20.30;99.90;;;;;;5054334;28;20212;-56
2022/09/08 07:12:59;;;;;;;1.52;0.73;;;20.20;99.90;;;;;;5054077;28;20291;-55
2022/09/08 07:15:48;;;;;;;1.65;1.10;;;20.20;99.90;;;;;;5053976;28;20228;-55
2022/09/08 07:18:20;;;;;;;1.63;0.80;;;20.20;99.90;;;;;;5054335;28;20209;-56
2022/09/08 07:20:47;;;;;;;1.15;0.70;;;20.30;99.90;;;;;;5054211;28;20213;-56
2022/09/08 07:23:19;;;;;;;2.55;0.70;;;20.40;99.90;;;;;;5053543;28;20284;-55
2022/09/08 07:25:52;;;;;;;1.95;0.93;;;20.50;99.90;;;;;;5053769;28;20259;-55
2022/09/08 07:28:22;;;;;;;1.92;0.90;;;20.60;99.90;;;;;;5054023;28;20316;-55
2022/09/08 07:30:54;;;;;;;2.50;0.82;;;20.70;99.90;;;;;;5053932;28;20213;-55
2022/09/08 07:33:25;;;;;;;4.07;0.90;;;20.80;99.90;;;;;;5053864;28;20206;-57
2022/09/08 07:35:59;;;;;;;2.10;0.68;;;20.80;99.90;;;;;;5053641;28;20210;-55
2022/09/08 07:38:36;;;;;;;1.27;0.90;;;20.80;99.90;;;;;;5053693;28;20209;-55
2022/09/08 07:41:06;;;;;;;0.80;0.77;;;20.90;99.90;;;;;;5053943;28;20247;-56
2022/09/08 07:43:32;;;;;;;1.23;0.70;;;21.00;99.90;;;;;;5053677;28;20248;-56
2022/09/08 07:46:22;;;;;;;1.52;0.80;;;21.10;99.90;;;;;;5053383;28;20258;-57
2022/09/08 07:48:55;;;;;;;4.20;1.17;;;21.10;99.90;;;;;;5053126;28;20226;-55
2022/09/08 07:51:24;;;;;;;3.65;0.90;;;21.20;99.90;;;;;;5053445;28;20713;-55
2022/09/08 07:54:03;;;;;;;1.73;0.80;;;21.40;99.90;;;;;;5053456;28;20209;-56
2022/09/08 07:56:40;;;;;;;2.40;1.20;;;21.60;99.90;;;;;;5053407;28;20206;-56
2022/09/08 07:59:19;;;;;;;1.77;0.80;;;21.70;99.90;;;;;;5053431;28;20197;-57
2022/09/08 08:01:55;;;;;;;1.40;0.70;;;21.80;99.90;;;;;;5053333;28;20226;-57
2022/09/08 08:04:42;;;;;;;1.35;0.88;;;21.90;99.90;;;;;;5053574;28;20274;-58
2022/09/08 08:07:14;;;;;;;5.30;2.60;;;22.00;99.90;;;;;;5053251;28;20251;-56
2022/09/08 08:09:51;;;;;;;3.20;1.25;;;22.10;99.90;;;;;;5053282;28;20229;-56
2022/09/08 08:12:26;;;;;;;2.15;0.70;;;22.30;99.90;;;;;;5052979;28;20231;-57
2022/09/08 08:15:00;;;;;;;2.00;1.10;;;22.40;99.90;;;;;;5053189;28;20228;-57
2022/09/08 08:17:33;;;;;;;2.97;1.30;;;22.40;99.90;;;;;;5053177;28;20240;-57
2022/09/08 08:20:21;;;;;;;2.65;1.73;;;22.60;99.90;;;;;;5053047;28;20267;-57
2022/09/08 08:23:09;;;;;;;5.22;1.60;;;22.90;99.90;;;;;;5052871;28;20731;-57
2022/09/08 08:25:47;;;;;;;3.67;1.13;;;23.20;99.90;;;;;;5049589;28;20210;-57
2022/09/08 08:28:17;;;;;;;2.75;1.52;;;23.40;99.90;;;;;;5052902;28;20225;-57
2022/09/08 08:30:52;;;;;;;2.08;0.85;;;23.60;99.90;;;;;;5052853;28;20653;-57
2022/09/08 08:33:25;;;;;;;0.50;0.45;;;23.70;99.90;;;;;;5052728;28;20624;-58
2022/09/08 08:35:54;;;;;;;1.25;0.98;;;23.70;99.90;;;;;;5052678;28;20256;-57
2022/09/08 08:38:26;;;;;;;2.58;0.75;;;23.70;99.90;;;;;;5053014;28;20334;-57
2022/09/08 08:40:56;;;;;;;1.08;0.50;;;23.70;99.90;;;;;;5052713;28;20255;-57
2022/09/08 08:43:56;;;;;;;2.15;0.80;;;23.60;99.90;;;;;;5052930;28;20263;-58
2022/09/08 08:46:39;;;;;;;1.17;0.70;;;23.50;99.90;;;;;;5052588;28;20214;-59
2022/09/08 08:49:32;;;;;;;0.70;0.57;;;23.50;99.90;;;;;;5052224;28;20701;-57
2022/09/08 08:52:13;;;;;;;1.88;0.52;;;23.60;99.90;;;;;;5049288;28;20232;-59
2022/09/08 08:54:53;;;;;;;0.32;0.32;;;23.60;99.90;;;;;;5052098;28;20201;-58
2022/09/08 08:57:33;;;;;;;2.08;1.00;;;23.60;99.90;;;;;;5052266;28;20216;-57
2022/09/08 09:00:15;;;;;;;1.45;0.68;;;23.50;99.90;;;;;;5052606;28;20240;-58
2022/09/08 09:03:05;;;;;;;3.10;0.85;;;23.40;99.90;;;;;;5052277;28;20244;-58
2022/09/08 09:06:08;;;;;;;2.05;0.68;;;23.40;99.90;;;;;;5052012;28;20255;-57
2022/09/08 09:09:13;;;;;;;1.50;0.60;;;23.10;99.90;;;;;;5031859;28;20628;-57
2022/09/08 09:12:13;;;;;;;1.02;0.77;;;22.90;99.90;;;;;;5052028;28;20260;-57
2022/09/08 09:15:17;;;;;;;1.58;0.40;;;22.90;99.90;;;;;;5031603;28;20216;-59
2022/09/08 09:18:22;;;;;;;0.85;0.50;;;23.00;99.90;;;;;;5051999;28;20205;-57
2022/09/08 09:20:55;;;;;;;2.13;1.15;;;23.30;99.90;;;;;;5052116;28;20357;-59
2022/09/08 09:23:37;;;;;;;1.13;0.60;;;23.50;99.90;;;;;;5051948;28;20206;-58
2022/09/08 09:26:15;;;;;;;1.17;0.63;;;23.70;99.90;;;;;;5051478;28;20622;-58
2022/09/08 09:29:07;;;;;;;1.17;0.63;;;23.80;99.90;;;;;;5051677;28;20322;-59
2022/09/08 09:32:04;;;;;;;1.33;0.73;;;24.20;99.90;;;;;;5042750;28;20233;-60
2022/09/08 09:35:17;;;;;;;1.02;0.60;;;24.60;99.90;;;;;;5052082;28;20213;-59
2022/09/08 09:38:16;;;;;;;2.22;0.80;;;25.00;99.90;;;;;;5016530;28;20288;-56
2022/09/08 09:41:18;;;;;;;1.23;0.82;;;25.00;99.90;;;;;;5051971;28;20218;-57
2022/09/08 09:44:06;;;;;;;0.93;0.60;;;24.80;99.90;;;;;;5028238;28;20291;-58
2022/09/08 09:47:08;;;;;;;0.73;0.60;;;24.70;99.90;;;;;;5051393;28;20605;-58
2022/09/08 09:50:18;;;;;;;1.55;0.65;;;24.50;99.90;;;;;;5052517;28;20279;-58
2022/09/08 09:52:52;;;;;;;1.73;0.50;;;24.50;99.90;;;;;;5038891;28;20225;-58
2022/09/08 09:55:40;;;;;;;5.55;4.50;;;24.30;99.90;;;;;;5052593;28;20208;-57
2022/09/08 09:58:39;;;;;;;3.38;1.83;;;24.00;99.90;;;;;;5052495;28;20208;-58
2022/09/08 10:01:28;;;;;;;2.97;0.80;;;23.80;99.90;;;;;;5045689;28;20279;-57
2022/09/08 10:04:22;;;;;;;1.27;0.60;;;23.90;99.90;;;;;;5052315;28;20201;-58
2022/09/08 10:07:04;;;;;;;1.17;0.52;;;24.00;99.90;;;;;;5052287;28;20229;-58
2022/09/08 10:10:08;;;;;;;1.45;0.50;;;24.30;99.90;;;;;;5052348;28;20275;-59
2022/09/08 10:13:03;;;;;;;0.50;0.32;;;24.60;99.90;;;;;;5018123;28;20240;-58
2022/09/08 10:15:54;;;;;;;1.08;0.60;;;25.00;99.90;;;;;;5048686;28;20210;-56
2022/09/08 10:19:02;;;;;;;2.33;0.50;;;25.30;99.90;;;;;;5051757;28;20292;-56
2022/09/08 10:22:09;;;;;;;2.28;0.30;;;25.40;99.90;;;;;;5072969;22;20230;-64
2022/09/08 10:25:15;;;;;;;0.63;0.45;;;25.50;99.90;;;;;;5042514;28;20668;-63
2022/09/08 10:28:12;;;;;;;1.25;0.52;;;25.40;99.90;;;;;;5050009;28;20209;-63
2022/09/08 10:31:25;;;;;;;1.25;0.70;;;25.40;99.90;;;;;;5051122;28;20205;-62
2022/09/08 10:34:35;;;;;;;3.38;0.47;;;25.60;99.90;;;;;;5031337;28;20577;-63
2022/09/08 10:37:04;;;;;;;0.50;0.40;;;25.20;99.90;;;;;;4931590;29;20236;-63
2022/09/08 10:39:43;;;;;;;0.47;0.47;;;25.10;99.90;;;;;;5008980;28;20634;-62
2022/09/08 10:42:38;;;;;;;1.13;0.40;;;25.30;99.90;;;;;;5031104;28;20248;-64
2022/09/08 10:45:37;;;;;;;1.15;0.45;;;25.60;99.90;;;;;;5031033;28;20207;-63
2022/09/08 10:48:40;;;;;;;1.15;0.50;;;25.60;99.90;;;;;;5031016;28;20210;-63
2022/09/08 10:51:36;;;;;;;0.65;0.30;;;25.40;99.90;;;;;;4994766;28;20238;-62
2022/09/08 10:54:20;;;;;;;0.95;0.32;;;25.40;99.90;;;;;;5030969;28;20217;-60
2022/09/08 10:56:49;;;;;;;0.95;0.30;;;25.60;99.90;;;;;;5031346;28;20206;-63
2022/09/08 10:59:40;;;;;;;1.65;0.57;;;25.80;99.90;;;;;;5034262;28;20249;-63
2022/09/08 11:02:30;;;;;;;1.40;0.70;;;25.90;99.90;;;;;;5034493;28;20317;-61
2022/09/08 11:05:26;;;;;;;2.22;0.60;;;26.20;99.90;;;;;;5034292;28;20241;-62
2022/09/08 11:08:30;;;;;;;2.20;0.73;;;26.50;99.80;;;;;;5034348;28;20264;-62
2022/09/08 11:11:20;;;;;;;0.80;0.50;;;26.60;98.60;;;;;;5033898;28;20692;-61
2022/09/08 11:14:01;;;;;;;4.38;0.80;;;26.60;98.30;;;;;;5034358;28;20213;-61
2022/09/08 11:16:56;;;;;;;4.50;2.75;;;26.20;98.40;;;;;;5034042;28;20225;-61
2022/09/08 11:19:43;;;;;;;1.83;0.77;;;25.90;99.60;;;;;;5034440;28;20210;-61
2022/09/08 11:22:43;;;;;;;0.43;0.40;;;25.70;99.00;;;;;;5034101;28;20724;-60
2022/09/08 11:25:33;;;;;;;1.35;0.70;;;25.60;99.00;;;;;;5034093;28;20207;-61
2022/09/08 11:28:12;;;;;;;1.67;0.80;;;25.40;99.70;;;;;;5034366;28;20210;-61
2022/09/08 11:30:51;;;;;;;1.63;0.70;;;25.20;99.90;;;;;;5018575;28;20750;-63
2022/09/08 11:33:31;;;;;;;1.55;0.60;;;24.60;99.90;;;;;;5013495;28;20273;-64
2022/09/08 11:36:07;;;;;;;2.80;1.10;;;24.20;99.90;;;;;;5012640;28;20210;-60
2022/09/08 11:39:00;;;;;;;0.85;0.40;;;24.20;99.90;;;;;;5013261;28;20211;-63
2022/09/08 11:41:55;;;;;;;1.05;0.68;;;24.30;99.90;;;;;;5014025;28;20237;-64
2022/09/08 11:44:42;;;;;;;1.50;0.55;;;24.50;99.90;;;;;;4996975;28;20350;-64
2022/09/08 11:47:48;;;;;;;1.50;0.65;;;24.90;99.90;;;;;;5013712;28;20210;-64
2022/09/08 11:50:36;;;;;;;3.03;0.93;;;25.40;99.90;;;;;;4973334;28;20234;-63
2022/09/08 11:53:47;;;;;;;1.25;0.75;;;25.80;99.20;;;;;;5013516;28;20658;-64
2022/09/08 11:56:54;;;;;;;2.28;0.80;;;26.10;97.80;;;;;;5019588;28;20203;-64
2022/09/08 11:59:35;;;;;;;1.42;0.60;;;26.30;97.50;;;;;;5004716;28;20206;-64
2022/09/08 12:02:17;;;;;;;1.55;0.60;;;26.40;97.30;;;;;;5032382;28;20230;-64
2022/09/08 12:05:02;;;;;;;1.52;0.70;;;26.30;97.30;;;;;;5031795;28;20214;-63
2022/09/08 12:08:02;;;;;;;3.10;1.13;;;26.30;96.00;;;;;;5032063;28;20206;-63
2022/09/08 12:10:54;;;;;;;2.00;0.43;;;26.20;96.10;;;;;;5031241;28;20230;-64
2022/09/08 12:13:28;;;;;;;3.22;0.70;;;26.20;96.20;;;;;;5031795;28;20662;-63
2022/09/08 12:16:09;;;;;;;2.47;0.80;;;26.40;96.20;;;;;;5031721;28;20237;-63
2022/09/08 12:18:52;;;;;;;1.20;0.68;;;26.50;95.80;;;;;;5032215;28;20210;-63
2022/09/08 12:21:55;;;;;;;2.55;1.25;;;26.50;95.60;;;;;;5031644;28;20263;-62
2022/09/08 12:24:36;;;;;;;2.85;0.93;;;26.40;95.60;;;;;;5027201;28;20210;-62
2022/09/08 12:27:15;;;;;;;3.17;0.70;;;26.40;94.50;;;;;;5031955;28;20244;-64
2022/09/08 12:29:56;;;;;;;3.67;0.70;;;26.50;94.40;;;;;;5031869;28;20233;-63
2022/09/08 12:32:42;;;;;;;2.35;0.80;;;26.40;94.70;;;;;;5031543;28;20225;-60
2022/09/08 12:35:21;;;;;;;3.38;0.75;;;26.40;94.80;;;;;;5031614;28;20351;-62
2022/09/08 12:37:54;;;;;;;1.63;0.70;;;26.40;93.70;;;;;;5032018;28;20206;-61
2022/09/08 12:40:54;;;;;;;1.35;0.65;;;26.50;93.10;;;;;;5031684;28;20206;-61
2022/09/08 12:43:22;;;;;;;1.02;0.63;;;26.60;93.00;;;;;;5031242;28;20736;-62
2022/09/08 12:46:12;;;;;;;2.60;1.05;;;26.70;92.70;;;;;;5031035;28;20249;-63
2022/09/08 12:48:49;;;;;;;2.60;0.90;;;26.60;92.90;;;;;;5031839;28;20728;-61
2022/09/08 12:51:24;;;;;;;1.98;0.90;;;26.50;92.50;;;;;;5031638;28;20205;-60
2022/09/08 12:54:09;;;;;;;3.20;1.05;;;26.50;94.00;;;;;;5031960;28;20209;-65
2022/09/08 12:56:55;;;;;;;3.60;1.00;;;26.30;96.00;;;;;;5030923;28;20213;-63
2022/09/08 12:59:38;;;;;;;2.60;0.98;;;26.30;96.30;;;;;;5031348;28;20205;-61
2022/09/08 13:02:28;;;;;;;2.55;1.00;;;26.40;94.60;;;;;;5031621;28;20245;-61
2022/09/08 13:05:07;;;;;;;4.43;1.02;;;26.50;93.60;;;;;;5031268;28;20206;-64
2022/09/08 13:07:44;;;;;;;1.38;0.60;;;26.70;92.90;;;;;;5034656;28;20214;-62
2022/09/08 13:10:25;;;;;;;3.13;1.00;;;26.80;92.20;;;;;;5036082;28;20225;-61
2022/09/08 13:13:32;;;;;;;3.63;0.70;;;27.00;91.90;;;;;;5039382;28;20253;-62
2022/09/08 13:16:24;;;;;;;3.00;1.10;;;27.20;92.10;;;;;;5039885;28;20210;-62
2022/09/08 13:19:02;;;;;;;5.15;1.23;;;27.50;91.00;;;;;;5039976;28;20214;-62
2022/09/08 13:21:47;;;;;;;2.42;1.15;;;27.50;90.30;;;;;;5039945;28;20242;-61
2022/09/08 13:24:18;;;;;;;4.03;0.95;;;27.30;90.30;;;;;;5041604;28;20238;-62
2022/09/08 13:27:00;;;;;;;2.67;0.75;;;27.10;90.60;;;;;;5040951;28;20252;-61
2022/09/08 13:29:53;;;;;;;2.83;0.80;;;27.20;90.50;;;;;;5042434;28;20232;-62
2022/09/08 13:32:31;;;;;;;3.35;0.98;;;27.40;90.50;;;;;;5041138;28;20226;-62
2022/09/08 13:35:11;;;;;;;2.78;0.80;;;27.50;90.50;;;;;;5037901;28;20271;-60
2022/09/08 13:37:57;;;;;;;2.85;0.90;;;27.40;90.70;;;;;;5040320;28;20205;-62
2022/09/08 13:40:38;;;;;;;2.83;0.93;;;27.30;90.80;;;;;;5041622;28;20232;-63
2022/09/08 13:43:16;;;;;;;2.00;0.77;;;27.30;91.00;;;;;;5041259;28;20237;-63